Time;durP1;ratioP1;P1;durP2;ratioP2;P2;SDS_P1;SDS_P2;PMS_P1;PMS_P2;Temp;Humidity;BMP_temperature;BMP_pressure;BME280_temperature;BME280_humidity;BME280_pressure;Samples;Min_cycle;Max_cycle;Signal;HPM_P1;HPM_P2
2022/02/14 00:00:03;;;;;;;;;;;;;;;9.89;100.00;97754.41;5049032;28;20007;-84
2022/02/14 00:02:29;;;;;;;;;;;;;;;9.72;100.00;97751.84;5032471;28;19964;-85
2022/02/14 00:04:54;;;;;;;;;;;;;;;10.00;100.00;97746.16;5048711;28;19917;-86
2022/02/14 00:07:20;;;;;;;;;;;;;;;9.78;100.00;97741.22;5048664;28;19943;-85
2022/02/14 00:09:46;;;;;;;;;;;;;;;9.73;100.00;97738.06;5032129;28;19921;-87
2022/02/14 00:12:12;;;;;;;;;;;;;;;10.17;100.00;97740.16;5049090;28;19926;-87
2022/02/14 00:14:37;;;;;;;;;;;;;;;10.01;100.00;97740.94;5032659;28;19923;-85
2022/02/14 00:17:02;;;;;;;;;;;;;;;10.23;100.00;97732.13;5048809;28;19939;-86
2022/02/14 00:19:28;;;;;;;;;;;;;;;9.79;100.00;97730.06;5048582;28;19917;-86
2022/02/14 00:21:53;;;;;;;;;;;;;;;9.92;100.00;97725.13;5031858;28;20379;-85
2022/02/14 00:24:18;;;;;;;;;;;;;;;10.33;100.00;97738.53;5032254;28;19962;-85
2022/02/14 00:26:44;;;;;;;;;;;;;;;10.03;100.00;97720.28;5047802;28;20390;-85
2022/02/14 00:29:09;;;;;;;;;;;;;;;9.82;100.00;97719.63;5049037;28;19948;-85
2022/02/14 00:31:34;;;;;;;;;;;;;;;9.81;100.00;97720.53;5048460;28;19920;-87
2022/02/14 00:34:00;;;;;;;;;;;;;;;9.70;100.00;97712.50;5048023;28;19924;-85
2022/02/14 00:36:25;;;;;;;;;;;;;;;9.99;100.00;97714.47;5032243;28;19920;-86
2022/02/14 00:38:50;;;;;;;;;;;;;;;9.96;100.00;97719.75;5031990;28;19947;-87
2022/02/14 00:41:15;;;;;;;;;;;;;;;9.67;100.00;97704.94;5031754;28;19917;-85
2022/02/14 00:43:41;;;;;;;;;;;;;;;9.67;100.00;97703.22;5048601;28;19931;-84
2022/02/14 00:46:06;;;;;;;;;;;;;;;9.93;100.00;97699.34;5049044;28;19924;-85
2022/02/14 00:48:31;;;;;;;;;;;;;;;9.95;100.00;97710.38;5048775;28;20354;-85
2022/02/14 00:50:57;;;;;;;;;;;;;;;9.97;100.00;97695.72;5031520;28;19959;-85
2022/02/14 00:53:23;;;;;;;;;;;;;;;9.91;100.00;97708.88;5048836;28;19920;-86
2022/02/14 00:55:49;;;;;;;;;;;;;;;9.98;100.00;97707.66;5032115;28;19916;-87
2022/02/14 00:58:15;;;;;;;;;;;;;;;9.97;100.00;97700.84;5048617;28;20374;-86
2022/02/14 01:00:40;;;;;;;;;;;;;;;10.22;100.00;97704.75;5031682;28;20024;-85
2022/02/14 01:03:06;;;;;;;;;;;;;;;10.35;100.00;97712.69;5047845;28;19935;-85
2022/02/14 01:05:31;;;;;;;;;;;;;;;10.14;100.00;97701.72;5048521;28;19927;-86
2022/02/14 01:07:57;;;;;;;;;;;;;;;9.50;100.00;97696.31;5031932;28;19913;-86
2022/02/14 01:10:22;;;;;;;;;;;;;;;10.03;100.00;97697.97;5048726;28;19912;-85
2022/02/14 01:12:47;;;;;;;;;;;;;;;10.21;100.00;97687.63;5032272;28;20011;-86
2022/02/14 01:15:12;;;;;;;;;;;;;;;9.90;100.00;97688.38;5032339;28;19956;-85
2022/02/14 01:17:38;;;;;;;;;;;;;;;9.63;100.00;97671.69;5047694;28;19931;-86
2022/02/14 01:20:04;;;;;;;;;;;;;;;10.02;100.00;97673.16;5032455;28;20343;-85
2022/02/14 01:22:29;;;;;;;;;;;;;;;9.61;100.00;97668.34;5032185;28;19921;-85
2022/02/14 01:24:54;;;;;;;;;;;;;;;9.83;100.00;97670.69;5049861;28;19978;-85
2022/02/14 01:27:20;;;;;;;;;;;;;;;9.79;100.00;97676.06;5048444;28;19920;-85
2022/02/14 01:29:45;;;;;;;;;;;;;;;9.86;100.00;97667.13;5031783;28;19916;-86
2022/02/14 01:32:10;;;;;;;;;;;;;;;9.80;100.00;97654.56;5048756;28;20382;-87
2022/02/14 01:34:36;;;;;;;;;;;;;;;9.84;100.00;97659.47;5048451;28;19921;-87
2022/02/14 01:37:01;;;;;;;;;;;;;;;9.97;100.00;97666.59;5048016;28;19928;-86
2022/02/14 01:39:28;;;;;;;;;;;;;;;9.83;100.00;97651.88;5047174;28;19924;-87
2022/02/14 01:41:55;;;;;;;;;;;;;;;9.53;100.00;97647.31;5031004;28;20307;-85
2022/02/14 01:44:39;;;;;;;;;;;;;;;9.81;100.00;97651.13;5031695;28;19924;-85
2022/02/14 01:47:15;;;;;;;;;;;;;;;9.84;100.00;97650.94;5046983;28;19948;-87
2022/02/14 01:49:41;;;;;;;;;;;;;;;9.52;100.00;97637.97;5047695;28;19917;-84
2022/02/14 01:52:07;;;;;;;;;;;;;;;9.55;100.00;97632.66;5050556;28;19920;-85
2022/02/14 01:54:34;;;;;;;;;;;;;;;9.84;100.00;97640.66;5032045;28;19939;-87
2022/02/14 01:56:59;;;;;;;;;;;;;;;9.80;100.00;97636.56;5048405;28;19916;-86
2022/02/14 01:59:24;;;;;;;;;;;;;;;9.56;100.00;97612.97;5031176;28;19921;-86
2022/02/14 02:01:50;;;;;;;;;;;;;;;9.83;100.00;97621.84;5029735;28;19916;-85
2022/02/14 02:04:15;;;;;;;;;;;;;;;9.66;100.00;97618.47;5046244;28;20011;-85
2022/02/14 02:06:40;;;;;;;;;;;;;;;9.49;100.00;97622.72;5046133;28;20007;-86
2022/02/14 02:09:06;;;;;;;;;;;;;;;9.49;100.00;97612.44;5047561;28;19920;-85
2022/02/14 02:14:19;;;;;;;;;;;;;;;9.92;100.00;97620.53;5047959;28;19970;-85
2022/02/14 02:16:44;;;;;;;;;;;;;;;9.56;100.00;97602.69;5046257;28;20016;-84
2022/02/14 02:19:09;;;;;;;;;;;;;;;9.65;100.00;97591.94;5046070;28;19971;-86
2022/02/14 02:21:34;;;;;;;;;;;;;;;9.76;100.00;97588.78;5028569;28;20292;-84
2022/02/14 02:24:00;;;;;;;;;;;;;;;9.93;100.00;97591.34;5030788;28;19917;-86
2022/02/14 02:26:29;;;;;;;;;;;;;;;9.53;100.00;97575.38;5047680;28;19917;-84
2022/02/14 02:28:55;;;;;;;;;;;;;;;9.70;100.00;97583.97;5031388;28;19996;-87
2022/02/14 02:31:20;;;;;;;;;;;;;;;9.74;100.00;97572.59;5029742;28;20366;-87
2022/02/14 02:33:46;;;;;;;;;;;;;;;9.44;100.00;97560.41;5031722;28;19947;-88
2022/02/14 02:36:11;;;;;;;;;;;;;;;9.78;100.00;97561.25;5048328;28;20295;-87
2022/02/14 02:38:36;;;;;;;;;;;;;;;9.82;100.00;97550.75;5048550;28;19931;-85
2022/02/14 02:41:01;;;;;;;;;;;;;;;9.98;100.00;97543.06;5049091;28;19917;-85
2022/02/14 02:43:27;;;;;;;;;;;;;;;9.52;100.00;97545.44;5031406;28;20334;-86
2022/02/14 02:45:59;;;;;;;;;;;;;;;9.67;100.00;97543.00;5048270;28;19928;-86
2022/02/14 02:48:24;;;;;;;;;;;;;;;9.97;100.00;97538.84;5048279;28;19917;-86
2022/02/14 02:51:02;;;;;;;;;;;;;;;9.72;100.00;97531.56;5047755;28;19932;-85
2022/02/14 02:53:28;;;;;;;;;;;;;;;9.50;100.00;97520.75;5032295;28;19966;-87
2022/02/14 02:55:54;;;;;;;;;;;;;;;9.70;100.00;97522.28;5030264;28;19971;-88
2022/02/14 02:58:19;;;;;;;;;;;;;;;9.49;100.00;97519.91;5030801;28;19921;-87
2022/02/14 03:00:44;;;;;;;;;;;;;;;9.71;100.00;97511.91;5030899;28;19971;-86
2022/02/14 03:03:10;;;;;;;;;;;;;;;9.84;100.00;97504.38;5046961;28;19921;-86
2022/02/14 03:05:35;;;;;;;;;;;;;;;9.70;100.00;97502.53;5047499;28;19917;-85
2022/02/14 03:08:00;;;;;;;;;;;;;;;9.75;100.00;97504.88;5046740;28;20296;-85
2022/02/14 03:10:26;;;;;;;;;;;;;;;9.67;100.00;97497.56;5030245;28;19978;-86
2022/02/14 03:12:51;;;;;;;;;;;;;;;9.58;100.00;97492.91;5046812;28;19921;-87
2022/02/14 03:15:16;;;;;;;;;;;;;;;9.63;100.00;97489.19;5030027;28;19921;-85
2022/02/14 03:17:42;;;;;;;;;;;;;;;9.99;100.00;97484.72;5030481;28;21088;-85
2022/02/14 03:20:07;;;;;;;;;;;;;;;9.41;100.00;97486.06;5030406;28;19971;-86
2022/02/14 03:22:33;;;;;;;;;;;;;;;9.40;100.00;97469.00;5030189;28;20340;-85
2022/02/14 03:24:58;;;;;;;;;;;;;;;9.47;100.00;97470.34;5034613;28;19921;-86
2022/02/14 03:27:26;;;;;;;;;;;;;;;9.83;100.00;97474.47;5050890;28;19928;-87
2022/02/14 03:29:52;;;;;;;;;;;;;;;9.46;100.00;97462.69;5048277;28;20474;-85
2022/02/14 03:32:17;;;;;;;;;;;;;;;9.73;100.00;97470.72;5033340;28;19971;-87
2022/02/14 03:34:42;;;;;;;;;;;;;;;9.76;100.00;97476.53;5051132;28;20016;-85
2022/02/14 03:37:08;;;;;;;;;;;;;;;9.55;100.00;97470.75;5050947;28;19924;-85
2022/02/14 03:39:33;;;;;;;;;;;;;;;9.61;100.00;97467.06;5032264;28;20003;-86
2022/02/14 03:41:58;;;;;;;;;;;;;;;10.02;100.00;97466.56;5031986;28;20457;-85
2022/02/14 03:44:24;;;;;;;;;;;;;;;9.90;100.00;97468.06;5049312;28;20372;-85
2022/02/14 03:46:49;;;;;;;;;;;;;;;9.78;100.00;97479.00;5031938;28;19917;-85
2022/02/14 03:49:15;;;;;;;;;;;;;;;9.78;100.00;97463.56;5048693;28;19951;-86
2022/02/14 03:51:40;;;;;;;;;;;;;;;10.08;100.00;97473.13;5032016;28;20382;-85
2022/02/14 03:54:05;;;;;;;;;;;;;;;9.89;100.00;97466.41;5032087;28;19925;-85
2022/02/14 03:56:31;;;;;;;;;;;;;;;9.62;100.00;97473.84;5048930;28;19948;-85
2022/02/14 03:58:56;;;;;;;;;;;;;;;9.75;100.00;97468.88;5031786;28;19925;-85
2022/02/14 04:01:21;;;;;;;;;;;;;;;9.45;100.00;97445.63;5047955;28;19916;-86
2022/02/14 04:03:47;;;;;;;;;;;;;;;9.70;100.00;97458.03;5031321;28;19968;-85
2022/02/14 04:06:12;;;;;;;;;;;;;;;9.84;100.00;97447.81;5048016;28;19924;-85
2022/02/14 04:08:37;;;;;;;;;;;;;;;9.76;100.00;97447.41;5031427;28;19913;-85
2022/02/14 04:11:02;;;;;;;;;;;;;;;9.73;100.00;97460.41;5048108;28;19921;-85
2022/02/14 04:13:28;;;;;;;;;;;;;;;9.57;100.00;97435.53;5048029;28;19921;-85
2022/02/14 04:15:53;;;;;;;;;;;;;;;9.66;100.00;97435.97;5031852;28;20265;-86
2022/02/14 04:18:18;;;;;;;;;;;;;;;9.27;100.00;97426.88;5031981;28;19924;-86
2022/02/14 04:20:44;;;;;;;;;;;;;;;9.41;100.00;97429.53;5047685;28;19920;-85
2022/02/14 04:23:09;;;;;;;;;;;;;;;9.39;100.00;97415.94;5031737;28;19956;-86
2022/02/14 04:25:34;;;;;;;;;;;;;;;9.68;100.00;97429.00;5031712;28;19925;-85
2022/02/14 04:28:00;;;;;;;;;;;;;;;9.56;100.00;97417.63;5049391;28;20010;-85
2022/02/14 04:30:29;;;;;;;;;;;;;;;9.60;100.00;97429.38;5048678;28;19931;-85
2022/02/14 04:32:56;;;;;;;;;;;;;;;9.42;100.00;97431.22;5032238;28;19947;-88
2022/02/14 04:35:22;;;;;;;;;;;;;;;9.49;100.00;97427.41;5030878;28;20405;-86
2022/02/14 04:37:47;;;;;;;;;;;;;;;9.36;100.00;97441.81;5046931;28;19952;-85
2022/02/14 04:40:12;;;;;;;;;;;;;;;9.44;100.00;97437.06;5030691;28;20387;-86
2022/02/14 04:42:38;;;;;;;;;;;;;;;9.43;100.00;97425.16;5035959;28;19928;-87
2022/02/14 04:45:03;;;;;;;;;;;;;;;9.37;100.00;97418.63;5034577;28;19917;-86
2022/02/14 04:47:28;;;;;;;;;;;;;;;9.69;100.00;97417.78;5032271;28;20011;-88
2022/02/14 04:49:54;;;;;;;;;;;;;;;9.66;100.00;97408.50;5049131;28;19927;-85
2022/02/14 04:52:19;;;;;;;;;;;;;;;9.76;100.00;97395.97;5032605;28;20544;-86
2022/02/14 04:54:45;;;;;;;;;;;;;;;9.56;100.00;97397.91;5031933;28;20797;-86
2022/02/14 04:57:10;;;;;;;;;;;;;;;9.70;100.00;97422.03;5031151;28;19923;-85
2022/02/14 04:59:35;;;;;;;;;;;;;;;9.66;100.00;97433.38;5031158;28;20003;-85
2022/02/14 05:02:00;;;;;;;;;;;;;;;10.15;100.00;97448.72;5047616;28;19924;-85
2022/02/14 05:04:27;;;;;;;;;;;;;;;9.52;100.00;97436.69;5029838;28;20338;-86
2022/02/14 05:06:52;;;;;;;;;;;;;;;9.76;100.00;97450.81;5046557;28;20404;-85
2022/02/14 05:09:17;;;;;;;;;;;;;;;9.57;100.00;97438.09;5029431;28;19928;-86
2022/02/14 05:11:43;;;;;;;;;;;;;;;9.43;100.00;97440.56;5031076;28;19933;-87
2022/02/14 05:14:08;;;;;;;;;;;;;;;9.88;100.00;97449.31;5048950;28;19916;-86
2022/02/14 05:16:34;;;;;;;;;;;;;;;9.37;100.00;97439.16;5047601;28;19920;-90
2022/02/14 05:18:59;;;;;;;;;;;;;;;9.68;100.00;97442.69;5047168;28;20161;-87
2022/02/14 05:21:25;;;;;;;;;;;;;;;9.68;100.00;97429.00;5030387;28;19925;-86
2022/02/14 05:23:55;;;;;;;;;;;;;;;9.88;100.00;97436.47;5030499;28;19964;-87
2022/02/14 05:26:20;;;;;;;;;;;;;;;9.84;100.00;97443.50;5031892;28;19967;-85
2022/02/14 05:28:46;;;;;;;;;;;;;;;9.92;100.00;97430.25;5030674;28;20589;-86
2022/02/14 05:31:11;;;;;;;;;;;;;;;9.68;100.00;97421.28;5047777;28;20366;-88
2022/02/14 05:33:36;;;;;;;;;;;;;;;9.56;100.00;97431.31;5046974;28;19921;-86
2022/02/14 05:36:02;;;;;;;;;;;;;;;9.48;100.00;97427.47;5030646;28;20388;-86
2022/02/14 05:38:27;;;;;;;;;;;;;;;9.58;100.00;97436.38;5039020;28;20391;-88
2022/02/14 05:40:52;;;;;;;;;;;;;;;9.82;100.00;97444.50;5029284;28;20323;-86
2022/02/14 05:43:18;;;;;;;;;;;;;;;9.52;100.00;97447.78;5047539;28;19917;-86
2022/02/14 05:45:43;;;;;;;;;;;;;;;9.52;100.00;97449.53;5031412;28;19912;-85
2022/02/14 05:48:08;;;;;;;;;;;;;;;9.44;100.00;97439.66;5031746;28;19912;-86
2022/02/14 05:50:34;;;;;;;;;;;;;;;9.50;100.00;97444.47;5031495;28;20379;-87
2022/02/14 05:52:59;;;;;;;;;;;;;;;9.42;100.00;97442.31;5031092;28;20397;-87
2022/02/14 05:55:24;;;;;;;;;;;;;;;9.61;100.00;97441.34;5049363;28;19973;-86
2022/02/14 05:57:52;;;;;;;;;;;;;;;9.51;100.00;97435.88;5047873;28;20307;-86
2022/02/14 06:00:17;;;;;;;;;;;;;;;9.44;100.00;97431.94;5046656;28;19920;-86
2022/02/14 06:02:43;;;;;;;;;;;;;;;8.96;100.00;97426.72;5047577;28;19913;-88
2022/02/14 06:05:08;;;;;;;;;;;;;;;9.27;100.00;97432.00;5047255;28;19913;-85
2022/02/14 06:07:33;;;;;;;;;;;;;;;9.26;100.00;97427.75;5030599;28;19912;-85
2022/02/14 06:09:59;;;;;;;;;;;;;;;9.57;100.00;97427.81;5031854;28;19913;-87
2022/02/14 06:12:24;;;;;;;;;;;;;;;9.54;100.00;97432.31;5047920;28;20138;-88
2022/02/14 06:14:50;;;;;;;;;;;;;;;9.57;100.00;97440.66;5047838;28;19913;-86
2022/02/14 06:17:15;;;;;;;;;;;;;;;9.38;100.00;97434.84;5031684;28;20299;-85
2022/02/14 06:19:40;;;;;;;;;;;;;;;9.44;100.00;97447.34;5031392;28;19913;-86
2022/02/14 06:22:05;;;;;;;;;;;;;;;9.52;100.00;97446.97;5048044;28;19913;-88
2022/02/14 06:24:31;;;;;;;;;;;;;;;9.65;100.00;97442.84;5030707;28;19916;-87
2022/02/14 06:26:56;;;;;;;;;;;;;;;9.59;100.00;97438.03;5030456;28;20007;-87
2022/02/14 06:29:21;;;;;;;;;;;;;;;9.56;100.00;97433.88;5046938;28;19916;-88
2022/02/14 06:31:47;;;;;;;;;;;;;;;9.54;100.00;97440.03;5030519;28;19921;-87
2022/02/14 06:34:12;;;;;;;;;;;;;;;9.46;100.00;97431.88;5030464;28;20343;-87
2022/02/14 06:36:37;;;;;;;;;;;;;;;9.34;100.00;97421.31;5047480;28;19936;-86
2022/02/14 06:39:03;;;;;;;;;;;;;;;9.42;100.00;97408.09;5034541;28;20026;-88
2022/02/14 06:41:28;;;;;;;;;;;;;;;9.68;100.00;97426.44;5034359;28;20455;-86
2022/02/14 06:43:54;;;;;;;;;;;;;;;9.81;100.00;97432.56;5050333;28;19919;-86
2022/02/14 06:46:20;;;;;;;;;;;;;;;9.77;100.00;97425.94;5050261;28;19999;-86
2022/02/14 06:48:46;;;;;;;;;;;;;;;9.64;100.00;97436.03;5035032;28;20309;-87
2022/02/14 06:51:11;;;;;;;;;;;;;;;9.61;100.00;97436.22;5035296;28;19916;-87
2022/02/14 06:53:37;;;;;;;;;;;;;;;9.50;100.00;97431.63;5050788;28;19927;-87
2022/02/14 06:56:05;;;;;;;;;;;;;;;9.77;100.00;97425.94;5032745;28;19919;-87
2022/02/14 06:58:31;;;;;;;;;;;;;;;9.72;100.00;97426.19;5049326;28;20402;-86
2022/02/14 07:00:57;;;;;;;;;;;;;;;9.68;100.00;97422.13;5033208;28;19912;-87
2022/02/14 07:03:22;;;;;;;;;;;;;;;9.82;100.00;97423.94;5049981;28;20319;-88
2022/02/14 07:05:47;;;;;;;;;;;;;;;9.87;100.00;97437.38;5033579;28;19959;-87
2022/02/14 07:08:12;;;;;;;;;;;;;;;9.89;100.00;97445.00;5033517;28;20284;-86
2022/02/14 07:10:38;;;;;;;;;;;;;;;10.03;100.00;97448.50;5050199;28;20302;-87
2022/02/14 07:13:03;;;;;;;;;;;;;;;10.11;100.00;97460.09;5049160;28;19921;-86
2022/02/14 07:15:29;;;;;;;;;;;;;;;10.29;100.00;97450.59;5031800;28;19963;-87
2022/02/14 07:17:54;;;;;;;;;;;;;;;9.97;100.00;97466.00;5031722;28;19932;-86
2022/02/14 07:20:20;;;;;;;;;;;;;;;9.97;100.00;97460.88;5031967;28;19958;-85
2022/02/14 07:22:45;;;;;;;;;;;;;;;9.89;100.00;97458.69;5032573;28;19916;-86
2022/02/14 07:25:11;;;;;;;;;;;;;;;10.32;100.00;97470.97;5048207;28;20480;-85
2022/02/14 07:27:37;;;;;;;;;;;;;;;10.25;100.00;97479.00;5032274;28;19916;-86
2022/02/14 07:30:03;;;;;;;;;;;;;;;10.00;100.00;97470.97;5031814;28;19916;-87
2022/02/14 07:32:28;;;;;;;;;;;;;;;10.39;100.00;97470.53;5066304;28;20387;-86
2022/02/14 07:34:56;;;;;;;;;;;;;;;10.22;100.00;97478.34;5048946;28;19919;-84
2022/02/14 07:37:21;;;;;;;;;;;;;;;9.95;100.00;97470.41;5031944;28;19977;-84
2022/02/14 07:39:46;;;;;;;;;;;;;;;9.99;100.00;97472.72;5031785;28;19924;-85
2022/02/14 07:42:11;;;;;;;;;;;;;;;10.12;100.00;97472.03;5048971;28;19916;-86
2022/02/14 07:44:37;;;;;;;;;;;;;;;10.27;100.00;97476.34;5032919;28;20353;-84
2022/02/14 07:47:02;;;;;;;;;;;;;;;9.96;100.00;97469.47;5066289;28;20449;-83
2022/02/14 07:49:27;;;;;;;;;;;;;;;10.02;100.00;97472.53;5045480;28;20065;-85
2022/02/14 07:51:53;;;;;;;;;;;;;;;9.79;100.00;97472.97;5046330;28;19924;-85
2022/02/14 07:54:20;;;;;;;;;;;;;;;10.01;100.00;97477.75;5046808;28;20207;-84
2022/02/14 07:56:45;;;;;;;;;;;;;;;10.42;100.00;97475.53;5048415;28;20313;-89
2022/02/14 07:59:10;;;;;;;;;;;;;;;10.56;100.00;97471.34;5031754;28;19916;-85
2022/02/14 08:01:36;;;;;;;;;;;;;;;10.44;100.00;97465.13;5048635;28;19916;-84
2022/02/14 08:04:01;;;;;;;;;;;;;;;10.33;100.00;97465.75;5032453;28;20383;-86
2022/02/14 08:06:26;;;;;;;;;;;;;;;10.39;100.00;97462.81;5032176;28;19990;-84
2022/02/14 08:08:52;;;;;;;;;;;;;;;10.56;100.00;97466.19;5048476;28;19952;-85
2022/02/14 08:11:18;;;;;;;;;;;;;;;10.57;100.00;97460.97;5049095;28;19912;-82
2022/02/14 08:13:43;;;;;;;;;;;;;;;10.28;100.00;97465.13;5034972;28;19919;-84
2022/02/14 08:16:08;;;;;;;;;;;;;;;10.23;100.00;97449.13;5068748;28;19920;-85
2022/02/14 08:18:34;;;;;;;;;;;;;;;10.22;100.00;97458.59;5056489;28;19955;-86
2022/02/14 08:20:59;;;;;;;;;;;;;;;10.59;100.00;97460.88;5060749;28;19921;-85
2022/02/14 08:23:24;;;;;;;;;;;;;;;10.54;100.00;97457.75;5063630;28;20178;-83
2022/02/14 08:25:49;;;;;;;;;;;;;;;10.68;100.00;97458.59;5058001;28;20572;-86
2022/02/14 08:28:16;;;;;;;;;;;;;;;10.48;100.00;97458.91;5039160;28;20007;-84
2022/02/14 08:30:41;;;;;;;;;;;;;;;10.70;100.00;97458.53;5075625;28;20007;-84
2022/02/14 08:33:09;;;;;;;;;;;;;;;11.09;100.00;97470.00;5068722;28;20427;-89
2022/02/14 08:35:34;;;;;;;;;;;;;;;10.68;100.00;97445.72;5051824;28;19998;-87
2022/02/14 08:38:11;;;;;;;;;;;;;;;11.10;100.00;97466.50;5034471;28;19924;-89
2022/02/14 08:40:37;;;;;;;;;;;;;;;11.09;100.00;97467.44;5034484;28;19916;-87
2022/02/14 08:43:02;;;;;;;;;;;;;;;10.77;100.00;97454.69;5034423;28;19991;-88
2022/02/14 08:45:28;;;;;;;;;;;;;;;10.71;100.00;97449.88;5035258;28;19916;-88
2022/02/14 08:47:54;;;;;;;;;;;;;;;10.89;100.00;97459.13;5036186;28;19916;-87
2022/02/14 08:50:19;;;;;;;;;;;;;;;10.70;100.00;97458.53;5037534;28;19916;-87
2022/02/14 08:52:45;;;;;;;;;;;;;;;11.01;100.00;97459.31;5056975;28;20549;-86
2022/02/14 08:55:11;;;;;;;;;;;;;;;10.68;100.00;97471.47;5059027;28;20108;-86
2022/02/14 08:57:36;;;;;;;;;;;;;;;11.30;100.00;97455.03;5041970;28;19916;-84
2022/02/14 09:00:05;;;;;;;;;;;;;;;11.12;100.00;97464.66;5058421;28;19916;-85
2022/02/14 09:02:31;;;;;;;;;;;;;;;11.18;100.00;97469.47;5041937;28;19939;-86
2022/02/14 09:04:56;;;;;;;;;;;;;;;11.23;100.00;97457.13;5059063;28;19962;-86
2022/02/14 09:07:21;;;;;;;;;;;;;;;11.23;100.00;97457.13;5041074;28;19916;-85
2022/02/14 09:09:47;;;;;;;;;;;;;;;11.58;100.00;97472.22;5042122;28;19923;-84
2022/02/14 09:12:12;;;;;;;;;;;;;;;11.48;100.00;97468.56;5042384;28;19918;-84
2022/02/14 09:14:37;;;;;;;;;;;;;;;11.59;100.00;97462.78;5042643;28;19924;-84
2022/02/14 09:17:03;;;;;;;;;;;;;;;11.46;100.00;97470.41;5042513;28;19984;-83
2022/02/14 09:19:28;;;;;;;;;;;;;;;11.59;100.00;97471.31;5041474;28;20551;-85
2022/02/14 09:21:53;;;;;;;;;;;;;;;11.81;100.00;97470.00;5056578;28;20022;-85
2022/02/14 09:24:19;;;;;;;;;;;;;;;11.50;100.00;97470.13;5039184;28;19965;-86
2022/02/14 09:26:44;;;;;;;;;;;;;;;11.17;100.00;97472.94;5056032;28;19921;-86
2022/02/14 09:29:10;;;;;;;;;;;;;;;11.34;100.00;97471.97;5040226;28;19916;-85
2022/02/14 09:31:37;;;;;;;;;;;;;;;11.52;100.00;97467.47;5038416;28;20003;-84
2022/02/14 09:34:02;;;;;;;;;;;;;;;11.78;100.00;97470.19;5039534;28;19948;-85
2022/02/14 09:36:27;;;;;;;;;;;;;;;11.55;100.00;97472.44;5073677;28;19913;-85
2022/02/14 09:38:53;;;;;;;;;;;;;;;11.49;100.00;97462.47;5055750;28;20262;-84
2022/02/14 09:41:18;;;;;;;;;;;;;;;11.47;100.00;97469.47;5037972;28;19921;-84
2022/02/14 09:43:44;;;;;;;;;;;;;;;11.22;100.00;97467.53;5038416;28;21045;-85
2022/02/14 09:46:10;;;;;;;;;;;;;;;11.49;100.00;97462.47;5055643;28;19927;-85
2022/02/14 09:48:36;;;;;;;;;;;;;;;12.04;100.00;97478.94;5055085;28;19921;-83
2022/02/14 09:51:01;;;;;;;;;;;;;;;11.89;100.00;97465.25;5055390;28;19957;-82
2022/02/14 09:53:27;;;;;;;;;;;;;;;11.77;100.00;97471.09;5055782;28;19925;-84
2022/02/14 09:55:52;;;;;;;;;;;;;;;11.64;100.00;97465.88;5055982;28;19985;-84
2022/02/14 09:58:17;;;;;;;;;;;;;;;12.04;100.00;97487.53;5052670;28;19912;-87
2022/02/14 10:00:42;;;;;;;;;;;;;;;11.50;100.00;97467.56;5069143;28;19987;-86
2022/02/14 10:03:14;;;;;;;;;;;;;;;11.99;100.00;97475.81;5070689;28;20367;-85
2022/02/14 10:05:44;;;;;;;;;;;;;;;11.88;100.00;97484.19;5050489;28;20407;-85
2022/02/14 10:08:09;;;;;;;;;;;;;;;11.89;100.00;97475.56;5049777;28;20067;-86
2022/02/14 10:10:36;;;;;;;;;;;;;;;12.13;100.00;97479.19;5033806;28;20027;-84
2022/02/14 10:13:01;;;;;;;;;;;;;;;11.84;100.00;97480.16;5035262;28;19926;-85
2022/02/14 10:15:27;;;;;;;;;;;;;;;12.24;100.00;97477.69;5032448;28;20386;-86
2022/02/14 10:17:59;;;;;;;;;;;;;;;12.05;100.00;97472.84;5048430;28;19920;-85
2022/02/14 10:20:26;;;;;;;;;;;;;;;12.06;100.00;97488.22;5048585;28;19934;-88
2022/02/14 10:22:52;;;;;;;;;;;;;;;11.79;100.00;97483.00;5032693;28;19916;-87
2022/02/14 10:25:24;;;;;;;;;;;;;;;12.23;100.00;97488.94;5049083;28;19943;-85
2022/02/14 10:27:50;;;;;;;;;;;;;;;12.47;100.00;97491.72;5032627;28;19917;-85
2022/02/14 10:30:16;;;;;;;;;;;;;;;12.19;100.00;97487.47;5049459;28;20023;-86
2022/02/14 10:32:52;;;;;;;;;;;;;;;12.50;100.00;97492.34;5050087;28;20318;-85
2022/02/14 10:35:17;;;;;;;;;;;;;;;12.52;100.00;97506.00;5033008;28;20414;-86
2022/02/14 10:37:43;;;;;;;;;;;;;;;12.65;100.00;97505.19;5029522;28;19963;-86
2022/02/14 10:40:10;;;;;;;;;;;;;;;12.48;100.00;97494.19;5048511;28;20375;-85
2022/02/14 10:42:35;;;;;;;;;;;;;;;12.41;100.00;97502.44;5046668;28;19916;-85
2022/02/14 10:45:10;;;;;;;;;;;;;;;12.47;100.00;97502.84;5028847;28;19936;-84
2022/02/14 10:47:36;;;;;;;;;;;;;;;12.51;100.00;97503.50;5030483;28;20579;-84
2022/02/14 10:50:18;;;;;;;;;;;;;;;12.67;100.00;97503.34;5045750;28;19940;-85
2022/02/14 10:52:48;;;;;;;;;;;;;;;12.55;100.00;97498.03;5060194;28;19917;-85
2022/02/14 10:55:16;;;;;;;;;;;;;;;12.81;100.00;97492.13;5028896;28;20350;-85
2022/02/14 10:57:42;;;;;;;;;;;;;;;12.40;100.00;97500.78;5046131;28;19916;-85
2022/02/14 11:00:08;;;;;;;;;;;;;;;12.34;100.00;97491.69;5045955;28;19979;-85
2022/02/14 11:02:34;;;;;;;;;;;;;;;12.52;100.00;97487.91;5046684;28;20007;-86
2022/02/14 11:04:59;;;;;;;;;;;;;;;12.63;100.00;97497.53;5031377;28;20443;-84
2022/02/14 11:07:25;;;;;;;;;;;;;;;12.89;100.00;97506.19;5045022;28;19963;-83
2022/02/14 11:09:51;;;;;;;;;;;;;;;12.65;100.00;97502.63;5029135;28;19946;-84
2022/02/14 11:12:19;;;;;;;;;;;;;;;12.49;100.00;97490.69;5045138;28;20289;-83
2022/02/14 11:14:55;;;;;;;;;;;;;;;12.65;100.00;97492.28;5029579;28;19924;-83
2022/02/14 11:17:25;;;;;;;;;;;;;;;12.87;100.00;97502.06;5028886;28;19916;-83
2022/02/14 11:19:52;;;;;;;;;;;;;;;12.85;100.00;97496.16;5047763;28;19920;-85
2022/02/14 11:22:17;;;;;;;;;;;;;;;12.56;100.00;97499.69;5047323;28;20460;-85
2022/02/14 11:24:43;;;;;;;;;;;;;;;12.81;100.00;97495.53;5047373;28;19916;-84
2022/02/14 11:27:11;;;;;;;;;;;;;;;12.48;100.00;97491.63;5047830;28;20311;-84
2022/02/14 11:29:38;;;;;;;;;;;;;;;12.86;100.00;97498.63;5030075;28;19964;-84
2022/02/14 11:32:22;;;;;;;;;;;;;;;12.72;100.00;97501.28;5048013;28;20339;-84
2022/02/14 11:34:55;;;;;;;;;;;;;;;11.94;100.00;97499.31;5046992;28;19952;-84
2022/02/14 11:37:21;;;;;;;;;;;;;;;12.13;100.00;97497.25;5047008;28;19924;-84
2022/02/14 11:39:46;;;;;;;;;;;;;;;12.30;100.00;97503.13;5029748;28;20082;-86
2022/02/14 11:42:11;;;;;;;;;;;;;;;12.61;100.00;97498.56;5030500;28;20399;-84
2022/02/14 11:44:37;;;;;;;;;;;;;;;12.69;100.00;97498.91;5048857;28;19913;-85
2022/02/14 11:47:03;;;;;;;;;;;;;;;12.79;100.00;97502.53;5053072;28;20338;-84
2022/02/14 11:49:36;;;;;;;;;;;;;;;12.39;100.00;97514.63;5051529;28;19917;-85
2022/02/14 11:52:02;;;;;;;;;;;;;;;12.36;100.00;97515.63;5050595;28;19916;-84
2022/02/14 11:54:44;;;;;;;;;;;;;;;12.12;100.00;97521.41;5036247;28;19913;-86
2022/02/14 11:57:29;;;;;;;;;;;;;;;12.43;100.00;97536.72;5049789;28;19943;-83
2022/02/14 12:00:12;;;;;;;;;;;;;;;12.05;100.00;97539.94;5051522;28;19952;-83
2022/02/14 12:02:38;;;;;;;;;;;;;;;11.82;100.00;97549.06;5051425;28;20363;-83
2022/02/14 12:05:03;;;;;;;;;;;;;;;11.71;100.00;97571.16;5035258;28;20214;-84
2022/02/14 12:07:29;;;;;;;;;;;;;;;11.46;100.00;97589.81;5034846;28;19924;-83
2022/02/14 12:09:57;;;;;;;;;;;;;;;12.00;100.00;97597.00;5051278;28;20008;-85
2022/02/14 12:12:41;;;;;;;;;;;;;;;12.12;100.00;97616.88;5051089;28;19921;-84
2022/02/14 12:20:37;;;;;;;;;;;;;;;12.16;100.00;97622.69;5050780;28;19923;-84
2022/02/14 12:23:02;;;;;;;;;;;;;;;12.41;100.00;97632.34;5032887;28;19924;-84
2022/02/14 12:25:28;;;;;;;;;;;;;;;11.97;100.00;97633.28;5034239;28;19917;-84
2022/02/14 12:27:57;;;;;;;;;;;;;;;12.33;100.00;97627.63;5051647;28;20269;-85
2022/02/14 12:30:22;;;;;;;;;;;;;;;12.01;100.00;97627.00;5032117;28;19955;-85
2022/02/14 12:33:00;;;;;;;;;;;;;;;12.07;100.00;97629.25;5064641;28;20315;-85
2022/02/14 12:35:28;;;;;;;;;;;;;;;11.69;100.00;97645.19;5049446;28;19947;-83
2022/02/14 12:37:53;;;;;;;;;;;;;;;12.03;100.00;97626.94;5052887;28;20019;-84
2022/02/14 12:40:19;;;;;;;;;;;;;;;11.97;100.00;97641.00;5058719;28;20399;-86
2022/02/14 12:42:44;;;;;;;;;;;;;;;11.58;100.00;97633.84;5040319;28;19921;-85
2022/02/14 12:45:12;;;;;;;;;;;;;;;11.47;100.00;97634.44;5024150;28;20200;-86